Create Tblcommutelog Verified Points Advance Search
| # | Trip ID | Id Commuter | Trip Date | Trip Num | Current Lat | Current Lng | Delta Distance | Current Time | Activity | Activity Confidence | Current Speed | |
|---|---|---|---|---|---|---|---|---|---|---|---|---|
| 69461 | 250722_775339_16642799_1729 | 775339 | (not set) | (not set) | 38.898228787265 | -77.050043137343 | 0.2298 | 2025-07-22 17:33:05 | on_foot | 100 | 0.72420359956011 | |
| 69462 | 250722_775339_16642799_1729 | 775339 | (not set) | (not set) | 38.898228787265 | -77.050043137343 | 0.2298 | 2025-07-22 17:33:05 | on_foot | 100 | 0.72420359956011 | |
| 69463 | 250722_775339_16642799_1729 | 775339 | (not set) | (not set) | 38.898228787265 | -77.050043137343 | 0.2298 | 2025-07-22 17:33:05 | on_foot | 100 | 0.72420359956011 | |
| 69464 | 250722_784815_16652847_1720 | 784815 | (not set) | (not set) | 38.987217179316 | -76.816245572057 | 12.5239 | 2025-07-22 17:33:05 | in_vehicle | 100 | 16.299051382692 | |
| 69465 | 250722_785147_16653236_1643 | 785147 | (not set) | (not set) | 38.989257733333 | -77.865129783333 | 26.6502 | 2025-07-22 17:33:06 | in_vehicle | 100 | 9.5889921052867 | |
| 69466 | 250722_738572_16603589_1645 | 738572 | (not set) | (not set) | 39.008308392697 | -76.501984336651 | 29.7955 | 2025-07-22 17:33:07 | in_vehicle | 100 | 8.0198843062398 | |
| 69467 | 250722_787489_16655982_1703 | 787489 | (not set) | (not set) | 38.914639997886 | -77.190059378244 | 9.4255 | 2025-07-22 17:33:09 | unknown | 100 | 12.458984147988 | |
| 69468 | 250722_769852_16636925_1629 | 769852 | (not set) | (not set) | 39.003936869609 | -77.185255107768 | 11.439 | 2025-07-22 17:33:09 | in_vehicle | 100 | 6.1333786333116 | |
| 69469 | 250722_731669_16595792_1649 | 731669 | (not set) | (not set) | 38.805467435102 | -77.063770467077 | 8.0897 | 2025-07-22 17:33:09 | in_vehicle | 100 | 0 | |
| 69470 | 250722_779784_16651737_1718 | 779784 | (not set) | (not set) | 39.12169149125 | -77.084465417563 | 9.665 | 2025-07-22 17:33:12 | in_vehicle | 100 | 14.519835131921 | |
| 69471 | 250722_700992_16654347_1704 | 700992 | (not set) | (not set) | 39.038030603251 | -77.14561650025 | 5.9995 | 2025-07-22 17:33:12 | in_vehicle | 100 | 7.6041377953812 | |
| 69472 | 250722_770021_16637091_1722 | 770021 | (not set) | (not set) | 38.994961140729 | -77.031524621096 | 0.4076 | 2025-07-22 17:33:15 | unknown | 100 | 0.58562142927392 | |
| 69473 | 250722_786340_16654648_1711 | 786340 | (not set) | (not set) | 39.020312641351 | -77.038272224763 | 6.0623 | 2025-07-22 17:33:15 | in_vehicle | 100 | 4.3407512047708 | |
| 69474 | 250722_781975_16654380_1626 | 781975 | (not set) | (not set) | 38.659398761651 | -77.283003406601 | 25.6079 | 2025-07-22 17:33:15 | still | 33 | -0.44703925898772 | |
| 69475 | 250722_781975_16654380_1626 | 781975 | (not set) | (not set) | 38.659398761651 | -77.283003406601 | 25.6079 | 2025-07-22 17:33:15 | still | 33 | -0.44703925898772 | |
| 69476 | 250722_781975_16654380_1626 | 781975 | (not set) | (not set) | 38.660004834931 | -77.283834600969 | 25.7505 | 2025-07-22 17:33:15 | still | 33 | -0.44703925898772 | |
| 69477 | 250722_781975_16654380_1626 | 781975 | (not set) | (not set) | 38.660004834931 | -77.283834600969 | 25.7505 | 2025-07-22 17:33:15 | still | 33 | -0.44703925898772 | |
| 69478 | 250722_786839_16655227_1706 | 786839 | (not set) | (not set) | 39.499530599109 | -76.172083681807 | 22.2969 | 2025-07-22 17:33:15 | in_vehicle | 100 | 0 | |
| 69479 | 250722_781052_16648727_1715 | 781052 | (not set) | (not set) | 38.898292668433 | -77.006481923005 | 2.0065 | 2025-07-22 17:33:15 | on_foot | 100 | -0.44703925898772 | |
| 69480 | 250722_784815_16652847_1720 | 784815 | (not set) | (not set) | 38.9894056142 | -76.812094045212 | 12.7937 | 2025-07-22 17:33:17 | in_vehicle | 100 | 16.062120575429 |